Time;durP1;ratioP1;P1;durP2;ratioP2;P2;SDS_P1;SDS_P2;PMS_P1;PMS_P2;Temp;Humidity;BMP_temperature;BMP_pressure;BME280_temperature;BME280_humidity;BME280_pressure;Samples;Min_cycle;Max_cycle;Signal;HPM_P1;HPM_P2
2021/06/18 00:07:22;;;;;;;5.10;3.07;;;;;;;17.37;49.52;99914.06;520876;1087;115887;-70
2021/06/18 00:17:29;;;;;;;5.20;3.43;;;;;;;17.26;49.84;99903.55;532525;1088;116700;-69
2021/06/18 00:27:36;;;;;;;6.93;2.60;;;;;;;17.27;50.00;99897.26;532392;1087;179059;-70
2021/06/18 00:37:42;;;;;;;5.70;2.80;;;;;;;17.19;49.92;99898.76;532607;1087;116465;-70
2021/06/18 00:47:56;;;;;;;5.63;2.70;;;;;;;17.08;50.39;99896.20;531156;1089;116149;-70
2021/06/18 00:58:03;;;;;;;2.80;2.60;;;;;;;16.98;50.47;99884.70;532501;1087;116421;-69
2021/06/18 01:08:18;;;;;;;6.33;3.63;;;;;;;16.83;50.82;99884.20;525806;1089;116229;-70
2021/06/18 01:18:31;;;;;;;3.27;2.90;;;;;;;16.68;51.16;99881.91;531803;1089;116502;-69
2021/06/18 01:28:47;;;;;;;3.33;2.47;;;;;;;16.57;51.40;99880.15;525383;1090;116244;-69
2021/06/18 01:38:55;;;;;;;3.63;3.23;;;;;;;16.46;51.67;99880.22;531847;1087;119121;-69
2021/06/18 01:49:05;;;;;;;3.43;2.88;;;;;;;16.36;51.81;99873.04;530598;1087;116780;-69
2021/06/18 01:59:12;;;;;;;4.43;2.63;;;;;;;16.34;52.03;99893.53;529357;1087;116944;-70
2021/06/18 02:09:21;;;;;;;5.00;2.80;;;;;;;16.28;52.28;99883.47;517699;1087;116203;-70
2021/06/18 02:19:29;;;;;;;3.50;3.17;;;;;;;16.22;52.57;99889.26;527896;1087;116039;-70
2021/06/18 02:29:36;;;;;;;3.70;3.33;;;;;;;16.22;52.80;99882.16;517215;1087;115951;-71
2021/06/18 02:39:43;;;;;;;7.00;3.60;;;;;;;16.28;52.88;99880.81;527378;1087;116444;-70
2021/06/18 02:49:59;;;;;;;5.17;3.20;;;;;;;16.75;52.57;99880.39;532600;1087;116006;-69
2021/06/18 03:00:10;;;;;;;5.50;3.37;;;;;;;20.22;49.41;99875.27;531868;1087;116515;-69
2021/06/18 03:10:24;;;;;;;7.63;3.50;;;;;;;22.35;45.07;99866.55;523759;1088;117595;-68
2021/06/18 03:20:33;;;;;;;4.37;3.20;;;;;;;22.38;43.49;99876.90;524727;1087;115838;-69
2021/06/18 03:30:41;;;;;;;4.35;3.30;;;;;;;24.58;38.86;99869.06;528594;1087;115957;-70
2021/06/18 03:40:49;;;;;;;5.08;3.63;;;;;;;22.24;40.77;99869.56;531392;1087;116595;-70
2021/06/18 03:50:56;;;;;;;6.83;3.25;;;;;;;22.41;42.75;99889.11;527008;1087;115861;-70
2021/06/18 04:01:04;;;;;;;5.57;3.40;;;;;;;30.70;35.14;99886.27;519173;1088;116245;-70
2021/06/18 04:11:12;;;;;;;4.47;2.97;;;;;;;35.74;28.91;99893.38;529884;1088;116843;-70
2021/06/18 04:21:22;;;;;;;5.07;3.03;;;;;;;38.24;24.80;99895.27;531707;1088;115954;-71
2021/06/18 04:31:29;;;;;;;3.00;2.50;;;;;;;40.58;21.86;99889.23;532502;1087;116806;-71
2021/06/18 04:41:36;;;;;;;3.30;3.00;;;;;;;42.52;19.31;99876.66;532010;1087;116148;-70
2021/06/18 04:51:42;;;;;;;4.63;2.37;;;;;;;44.41;17.48;99880.27;532549;1087;116171;-70
2021/06/18 05:01:49;;;;;;;4.17;2.50;;;;;;;45.33;16.61;99884.20;532504;1087;116386;-69
2021/06/18 05:11:56;;;;;;;4.93;2.00;;;;;;;46.69;14.88;99862.61;518153;1087;116152;-71
2021/06/18 05:22:03;;;;;;;4.40;2.83;;;;;;;47.08;14.03;99870.85;523578;1089;116327;-71
2021/06/18 05:32:13;;;;;;;3.13;2.53;;;;;;;47.37;13.92;99862.78;524304;1088;10001021;-70
2021/06/18 05:42:20;;;;;;;4.65;2.40;;;;;;;48.31;13.31;99848.47;531665;1087;118631;-70
2021/06/18 05:52:26;;;;;;;4.23;2.75;;;;;;;49.43;13.21;99843.47;514603;1090;116762;-68
2021/06/18 06:02:33;;;;;;;5.73;2.80;;;;;;;50.50;12.20;99850.50;511204;1090;10001579;-64
2021/06/18 06:12:40;;;;;;;10.37;3.27;;;;;;;52.30;11.58;99854.31;527912;1085;116506;-62
2021/06/18 06:22:46;;;;;;;4.17;3.80;;;;;;;51.30;11.99;99856.59;528957;1087;116093;-63
2021/06/18 06:32:52;;;;;;;;;;;;;;;52.99;10.71;99855.28;531791;1086;115955;-64
2021/06/18 06:42:59;;;;;;;5.13;4.80;;;;;;;53.25;10.80;99848.80;532732;1087;102600;-64
2021/06/18 06:53:07;;;;;;;6.65;5.95;;;;;;;53.68;10.50;99854.02;532529;1087;115668;-64
2021/06/18 07:03:13;;;;;;;7.95;7.40;;;;;;;53.96;10.20;99854.67;531813;1087;116680;-64
2021/06/18 07:13:21;;;;;;;9.10;8.33;;;;;;;54.17;10.18;99837.19;532565;1087;116161;-65
2021/06/18 07:23:27;;;;;;;10.85;10.33;;;;;;;54.25;9.64;99835.22;523431;1085;10113614;-64
2021/06/18 07:33:35;;;;;;;11.23;10.63;;;;;;;55.76;9.63;99830.52;526827;1087;117576;-70
2021/06/18 07:43:42;;;;;;;7.38;6.53;;;;;;;55.16;9.55;99817.58;532532;1087;117149;-73
2021/06/18 07:53:48;;;;;;;4.68;3.20;;;;;;;45.90;13.19;99808.29;531852;1088;115846;-65
2021/06/18 08:03:56;;;;;;;5.65;3.30;;;;;;;37.45;19.05;99819.63;532154;1089;115769;-63
2021/06/18 08:14:03;;;;;;;3.50;3.13;;;;;;;35.29;21.85;99796.28;529880;1087;116348;-65
2021/06/18 08:24:10;;;;;;;4.13;2.90;;;;;;;34.29;23.93;99798.89;530657;1087;116558;-65
2021/06/18 08:34:17;;;;;;;3.77;2.97;;;;;;;32.94;25.00;99795.81;532576;1089;116820;-69
2021/06/18 08:44:24;;;;;;;6.27;4.10;;;;;;;32.53;26.53;99804.73;532498;1088;115769;-66
2021/06/18 08:54:42;;;;;;;7.10;3.90;;;;;;;31.56;27.43;99798.66;531613;1087;116018;-63
2021/06/18 09:05:18;;;;;;;4.27;3.97;;;;;;;30.97;28.68;99810.09;532382;1087;116117;-61
2021/06/18 09:15:31;;;;;;;5.53;3.50;;;;;;;31.11;28.42;99778.19;531122;1087;116006;-62
2021/06/18 09:25:38;;;;;;;6.03;3.73;;;;;;;31.14;28.86;99778.56;532529;1087;117047;-62
2021/06/18 09:35:57;;;;;;;;;;;;;;;30.88;28.90;99779.77;531798;1088;116599;-62
2021/06/18 09:46:04;;;;;;;3.20;3.00;;;;;;;30.53;28.64;99780.34;532737;1087;102315;-62
2021/06/18 09:56:15;;;;;;;4.20;3.83;;;;;;;30.32;29.63;99769.74;516811;1086;116296;-62
2021/06/18 10:06:22;;;;;;;4.43;3.60;;;;;;;30.05;30.29;99761.06;528940;1085;116099;-61
2021/06/18 10:16:29;;;;;;;4.20;3.90;;;;;;;30.19;29.26;99753.64;523143;1087;115814;-61
2021/06/18 10:26:36;;;;;;;3.80;3.43;;;;;;;30.03;28.97;99749.60;530752;1089;116425;-61
2021/06/18 10:36:44;;;;;;;5.57;3.77;;;;;;;29.92;29.66;99737.64;515178;1090;117161;-60
2021/06/18 10:46:51;;;;;;;4.33;3.27;;;;;;;29.68;28.82;99737.45;532492;1087;116366;-62
2021/06/18 10:57:14;;;;;;;3.75;3.43;;;;;;;29.57;29.92;99724.64;531718;1088;116447;-62
2021/06/18 11:07:24;;;;;;;3.67;3.37;;;;;;;29.66;29.09;99711.66;532546;1087;116533;-62
2021/06/18 11:17:45;;;;;;;3.63;3.33;;;;;;;29.58;28.98;99721.69;532561;1087;116360;-62
2021/06/18 11:27:52;;;;;;;4.10;3.80;;;;;;;29.54;28.65;99700.72;532482;1087;116044;-60
2021/06/18 11:37:59;;;;;;;3.40;3.10;;;;;;;29.58;29.08;99697.34;532585;1085;116341;-61
2021/06/18 11:48:11;;;;;;;4.85;2.95;;;;;;;29.74;28.59;99687.84;531823;1087;116663;-61
2021/06/18 11:58:32;;;;;;;5.57;2.90;;;;;;;29.85;27.30;99680.05;526667;1087;116135;-61
2021/06/18 12:08:39;;;;;;;6.07;3.27;;;;;;;29.83;27.36;99693.78;526385;1087;116002;-62
2021/06/18 12:18:45;;;;;;;3.90;2.28;;;;;;;29.87;27.47;99680.64;532487;1087;116841;-62
2021/06/18 12:28:52;;;;;;;3.53;3.23;;;;;;;29.90;27.04;99674.80;532464;1087;115948;-62
2021/06/18 12:39:00;;;;;;;3.30;3.08;;;;;;;29.89;27.19;99681.23;520792;1087;116035;-62
2021/06/18 12:49:11;;;;;;;3.37;3.00;;;;;;;29.93;27.34;99664.33;526541;1087;116419;-61
2021/06/18 12:59:18;;;;;;;2.77;2.57;;;;;;;29.99;27.36;99676.14;532460;1087;115847;-61
2021/06/18 13:09:36;;;;;;;4.83;3.20;;;;;;;30.06;27.81;99649.02;530789;1090;116389;-65
2021/06/18 13:19:46;;;;;;;4.87;3.13;;;;;;;30.06;27.43;99641.74;532488;1088;116103;-62
2021/06/18 13:29:56;;;;;;;8.90;4.17;;;;;;;30.25;27.23;99639.03;531856;1088;116053;-63
2021/06/18 13:40:33;;;;;;;3.10;2.90;;;;;;;30.22;27.15;99654.90;519777;1088;116833;-62
2021/06/18 13:50:42;;;;;;;5.37;2.90;;;;;;;30.17;27.27;99631.21;523763;1089;116472;-63
2021/06/18 14:00:49;;;;;;;3.40;3.10;;;;;;;30.19;27.68;99638.06;510665;1087;20001226;-62
2021/06/18 14:10:56;;;;;;;3.53;2.88;;;;;;;30.13;27.70;99619.16;518554;1088;117125;-63
2021/06/18 14:21:03;;;;;;;3.73;2.83;;;;;;;30.18;27.52;99616.62;525563;1086;116916;-62
2021/06/18 14:31:10;;;;;;;4.63;3.17;;;;;;;30.17;28.02;99609.55;532448;1087;116221;-62
2021/06/18 14:41:17;;;;;;;5.20;3.38;;;;;;;30.20;27.29;99607.22;532473;1089;116068;-63
2021/06/18 14:51:23;;;;;;;3.63;3.05;;;;;;;30.21;27.48;99608.03;531755;1087;116131;-63
2021/06/18 15:01:30;;;;;;;4.95;3.68;;;;;;;30.16;27.37;99597.08;532497;1087;115954;-63
2021/06/18 15:11:36;;;;;;;5.23;2.90;;;;;;;30.17;27.20;99596.02;531740;1088;116640;-63
2021/06/18 15:21:43;;;;;;;3.43;3.13;;;;;;;30.26;27.74;99594.65;532480;1087;116139;-64
2021/06/18 15:31:52;;;;;;;3.38;3.13;;;;;;;30.26;27.77;99585.69;532521;1087;116267;-62
2021/06/18 15:41:58;;;;;;;3.25;2.95;;;;;;;30.24;27.60;99580.49;531820;1087;116051;-63
2021/06/18 15:52:07;;;;;;;11.33;5.10;;;;;;;30.21;27.48;99570.13;532504;1087;116665;-63
2021/06/18 16:02:11;;;;;;;;;;;;;;;30.12;27.22;99561.50;532357;1087;116164;-62
2021/06/18 16:12:45;;;;;;;5.10;3.30;;;;;;;30.10;27.77;99570.90;530218;1088;102951;-66
2021/06/18 16:22:52;;;;;;;5.00;3.40;;;;;;;30.05;28.16;99568.88;527757;1089;115890;-66
2021/06/18 16:32:59;;;;;;;4.05;3.65;;;;;;;29.94;28.33;99562.33;520117;1088;116162;-66
2021/06/18 16:43:06;;;;;;;4.20;3.80;;;;;;;29.76;28.46;99561.27;524627;1087;116533;-65
2021/06/18 16:53:14;;;;;;;3.57;3.27;;;;;;;29.62;29.35;99565.19;526084;1089;116467;-65
2021/06/18 17:03:21;;;;;;;6.07;3.50;;;;;;;29.53;29.12;99572.78;531580;1087;116416;-65
2021/06/18 17:13:51;;;;;;;4.03;3.73;;;;;;;29.43;29.38;99572.44;532349;1086;116211;-65
2021/06/18 17:23:58;;;;;;;6.30;4.00;;;;;;;29.26;29.91;99559.48;517542;1087;115967;-64
2021/06/18 17:34:04;;;;;;;5.63;4.03;;;;;;;29.04;30.08;99561.77;522517;1087;116126;-64
2021/06/18 17:44:11;;;;;;;6.53;3.45;;;;;;;28.81;30.74;99557.77;522005;1087;116085;-65
2021/06/18 17:54:19;;;;;;;3.75;3.30;;;;;;;29.23;31.54;99568.88;516270;1087;116026;-65
2021/06/18 18:04:26;;;;;;;5.10;3.23;;;;;;;28.96;31.42;99562.88;525505;1087;116010;-65
2021/06/18 18:14:33;;;;;;;5.35;4.20;;;;;;;28.30;32.68;99578.45;518324;1087;116362;-65
2021/06/18 18:24:42;;;;;;;5.60;3.53;;;;;;;27.80;33.56;99583.39;517352;1089;116048;-64
2021/06/18 18:34:49;;;;;;;3.67;3.37;;;;;;;27.36;34.68;99582.23;515767;1087;116245;-64
2021/06/18 18:44:56;;;;;;;7.40;4.68;;;;;;;26.91;36.19;99591.77;517934;1087;115873;-63
2021/06/18 18:55:04;;;;;;;6.50;4.35;;;;;;;26.50;37.36;99595.39;531054;1087;115997;-63
2021/06/18 19:05:14;;;;;;;4.53;3.93;;;;;;;26.09;38.72;99607.84;532546;1087;115991;-65
2021/06/18 19:15:24;;;;;;;3.84;3.28;;;;;;;25.72;39.28;99625.03;522774;1088;10001601;-70
2021/06/18 19:25:30;;;;;;;7.73;4.67;;;;;;;25.39;40.47;99630.97;523475;1088;10001668;-71
2021/06/18 19:35:38;;;;;;;6.17;4.20;;;;;;;25.10;41.08;99640.84;531709;1088;116758;-56
2021/06/18 19:45:44;;;;;;;9.40;5.03;;;;;;;24.86;41.66;99650.94;532368;1088;117029;-58
2021/06/18 19:55:52;;;;;;;5.03;4.63;;;;;;;24.63;43.00;99654.59;529954;1088;116356;-59
2021/06/18 20:05:57;;;;;;;;;;;;;;;24.43;43.70;99670.47;521976;1088;116808;-56
2021/06/18 20:16:05;;;;;;;6.07;4.77;;;;;;;24.21;44.79;99662.34;514376;1088;101996;-66
2021/06/18 20:26:12;;;;;;;5.75;4.00;;;;;;;24.01;45.83;99672.78;532411;1088;116466;-67
2021/06/18 20:36:21;;;;;;;4.73;4.33;;;;;;;23.82;46.40;99676.84;528262;1088;116790;-67
2021/06/18 20:46:28;;;;;;;10.03;4.77;;;;;;;23.57;47.22;99682.44;530808;1087;116109;-67
2021/06/18 20:56:35;;;;;;;7.53;5.00;;;;;;;23.33;48.03;99681.64;532493;1089;116153;-68
2021/06/18 21:06:42;;;;;;;4.60;4.20;;;;;;;23.13;48.69;99678.55;532515;1088;115779;-68
2021/06/18 21:16:49;;;;;;;6.67;4.40;;;;;;;22.93;49.25;99684.40;532282;1090;116711;-67
2021/06/18 21:26:57;;;;;;;6.53;4.90;;;;;;;22.74;49.81;99701.75;529184;1089;116020;-67
2021/06/18 21:37:04;;;;;;;5.68;5.00;;;;;;;22.56;50.29;99712.67;532473;1089;116223;-67
2021/06/18 21:47:10;;;;;;;6.20;5.07;;;;;;;22.39;50.66;99702.02;520521;1087;116061;-68
2021/06/18 21:57:18;;;;;;;7.50;5.53;;;;;;;22.24;51.24;99704.57;528841;1087;116057;-64
2021/06/18 22:07:24;;;;;;;6.80;4.87;;;;;;;22.10;51.43;99702.62;527206;1087;115967;-60
2021/06/18 22:17:32;;;;;;;6.33;5.63;;;;;;;21.97;51.67;99714.67;530567;1087;116181;-72
2021/06/18 22:27:40;;;;;;;5.37;4.87;;;;;;;21.87;52.35;99710.50;521137;1087;116780;-72
2021/06/18 22:37:48;;;;;;;5.57;4.87;;;;;;;21.69;52.51;99712.36;517864;1087;116293;-73
2021/06/18 22:47:56;;;;;;;5.98;5.00;;;;;;;21.52;52.50;99716.02;519335;1087;116299;-72
2021/06/18 22:58:04;;;;;;;7.20;6.70;;;;;;;21.33;52.88;99704.65;520064;1088;116614;-70
2021/06/18 23:08:12;;;;;;;6.77;5.03;;;;;;;21.20;53.40;99697.15;525349;1088;115952;-64
2021/06/18 23:18:19;;;;;;;6.07;4.77;;;;;;;21.11;53.68;99695.46;526580;1090;116457;-64
2021/06/18 23:28:26;;;;;;;5.27;4.83;;;;;;;20.95;54.08;99678.43;514683;1087;116481;-62
2021/06/18 23:38:33;;;;;;;5.77;5.23;;;;;;;20.84;53.82;99692.08;520337;1089;116391;-61
2021/06/18 23:48:39;;;;;;;4.90;4.43;;;;;;;20.75;54.03;99701.02;532530;1087;116125;-64
2021/06/18 23:58:46;;;;;;;6.43;4.73;;;;;;;20.60;54.91;99690.95;528168;1088;116608;-63
